createdAt,value
2022-09-15T00:00:55.426Z,96.18
2022-09-15T00:03:22.559Z,96.53
2022-09-15T00:05:49.296Z,96.35
2022-09-15T00:08:15.949Z,96.57
2022-09-15T00:10:53.448Z,96.75
2022-09-15T00:13:20.309Z,96.53
2022-09-15T00:15:47.099Z,96.02
2022-09-15T00:18:13.701Z,95.87
2022-09-15T00:20:43.942Z,96.11
2022-09-15T00:23:11.460Z,96.29
2022-09-15T00:25:45.958Z,96.35
2022-09-15T00:28:13.216Z,97.07
2022-09-15T00:30:44.172Z,97.12
2022-09-15T00:33:11.635Z,96.81
2022-09-15T00:35:42.658Z,96.90
2022-09-15T00:38:09.709Z,97.01
2022-09-15T00:40:57.066Z,97.41
2022-09-15T00:43:49.744Z,97.10
2022-09-15T00:46:17.377Z,97.54
2022-09-15T00:48:47.551Z,97.33
2022-09-15T00:51:15.625Z,98.05
2022-09-15T00:53:42.413Z,97.92
2022-09-15T00:56:09.509Z,98.19
2022-09-15T00:58:52.947Z,97.98
2022-09-15T01:01:19.754Z,97.86
2022-09-15T01:03:46.612Z,98.46
2022-09-15T01:06:20.343Z,98.90
2022-09-15T01:08:52.723Z,98.97
2022-09-15T01:11:19.286Z,98.66
2022-09-15T01:13:45.885Z,98.84
2022-09-15T01:16:33.289Z,98.80
2022-09-15T01:19:18.041Z,98.65
2022-09-15T01:22:17.423Z,99.20
2022-09-15T01:24:53.067Z,98.89
2022-09-15T01:27:44.371Z,99.20
2022-09-15T01:30:23.863Z,99.34
2022-09-15T01:33:12.047Z,98.97
2022-09-15T01:36:01.713Z,99.29
2022-09-15T01:38:49.337Z,98.59
2022-09-15T01:41:46.689Z,98.96
2022-09-15T01:44:15.713Z,98.87
2022-09-15T01:46:47.062Z,98.92
2022-09-15T01:51:43.998Z,99.30
2022-09-15T01:54:10.722Z,99.60
2022-09-15T01:56:38.081Z,99.72
2022-09-15T01:59:04.989Z,99.70
2022-09-15T02:01:48.051Z,99.39
2022-09-15T02:04:18.306Z,98.92
2022-09-15T02:06:53.355Z,99.06
2022-09-15T02:09:28.133Z,99.02
2022-09-15T02:11:58.476Z,98.18
2022-09-15T02:14:44.828Z,98.10
2022-09-15T02:17:14.489Z,98.20
2022-09-15T02:19:41.878Z,98.49
2022-09-15T02:22:23.481Z,98.72
2022-09-15T02:25:13.156Z,98.18
2022-09-15T02:27:53.272Z,97.80
2022-09-15T02:30:20.281Z,97.44
2022-09-15T02:32:57.369Z,97.27
2022-09-15T02:35:25.034Z,97.03
2022-09-15T02:37:51.607Z,96.67
2022-09-15T02:40:18.575Z,96.60
2022-09-15T02:42:56.161Z,97.04
2022-09-15T02:45:24.239Z,96.69
2022-09-15T02:47:51.048Z,96.56
2022-09-15T02:50:18.137Z,96.28
2022-09-15T02:52:44.894Z,95.61
2022-09-15T02:55:11.497Z,94.96
2022-09-15T02:57:38.117Z,94.78
2022-09-15T03:00:14.524Z,94.71
2022-09-15T03:02:42.258Z,94.56
2022-09-15T03:05:09.366Z,93.93
2022-09-15T03:07:38.143Z,93.87
2022-09-15T03:10:08.433Z,93.69
2022-09-15T03:12:49.435Z,93.12
2022-09-15T03:15:17.654Z,92.49
2022-09-15T03:17:44.800Z,92.68
2022-09-15T03:20:12.631Z,92.58
2022-09-15T03:22:39.228Z,93.12
2022-09-15T03:25:06.634Z,93.10
2022-09-15T03:27:36.185Z,93.43
2022-09-15T03:30:03.240Z,93.78
2022-09-15T03:32:29.873Z,93.55
2022-09-15T03:34:58.581Z,93.78
2022-09-15T03:37:25.527Z,93.18
2022-09-15T03:39:52.156Z,93.28
2022-09-15T03:42:18.806Z,93.17
2022-09-15T03:44:45.392Z,93.37
2022-09-15T03:47:11.951Z,93.21
2022-09-15T03:49:38.903Z,92.61
2022-09-15T03:52:05.585Z,92.94
2022-09-15T03:54:32.218Z,92.87
2022-09-15T03:56:58.979Z,93.17
2022-09-15T03:59:25.571Z,92.86
2022-09-15T04:01:52.145Z,93.12
2022-09-15T04:04:18.727Z,92.32
2022-09-15T04:06:45.332Z,92.51
2022-09-15T04:09:12.184Z,92.30
2022-09-15T04:11:39.581Z,92.23
2022-09-15T04:14:06.124Z,91.80
2022-09-15T04:16:32.873Z,91.62
2022-09-15T04:18:59.684Z,91.57
2022-09-15T04:21:26.723Z,91.36
2022-09-15T04:23:54.064Z,91.04
2022-09-15T04:26:22.836Z,89.99
2022-09-15T04:28:49.415Z,90.15
2022-09-15T04:31:16.513Z,90.19
2022-09-15T04:33:43.358Z,89.45
2022-09-15T04:36:15.308Z,90.43
2022-09-15T04:38:42.566Z,90.55
2022-09-15T04:41:09.563Z,90.75
2022-09-15T04:43:36.301Z,90.72
2022-09-15T04:46:02.916Z,90.59
2022-09-15T04:48:30.512Z,90.00
2022-09-15T04:51:01.875Z,90.25
2022-09-15T04:53:28.683Z,90.29
2022-09-15T04:56:04.873Z,90.74
2022-09-15T04:58:32.014Z,90.61
2022-09-15T05:00:59.075Z,90.50
2022-09-15T05:03:25.740Z,89.54
2022-09-15T05:05:52.371Z,89.13
2022-09-15T05:08:19.553Z,89.61
2022-09-15T05:10:46.140Z,89.33
2022-09-15T05:13:12.809Z,89.16
2022-09-15T05:15:39.825Z,89.57
2022-09-15T05:18:06.666Z,89.49
2022-09-15T05:20:33.268Z,89.39
2022-09-15T05:22:59.849Z,89.32
2022-09-15T05:25:26.468Z,89.03
2022-09-15T05:27:53.187Z,88.78
2022-09-15T05:33:06.488Z,89.04
2022-09-15T05:35:33.061Z,89.17
2022-09-15T05:37:59.797Z,88.68
2022-09-15T05:40:26.859Z,87.91
2022-09-15T05:42:53.438Z,88.37
2022-09-15T05:45:19.996Z,87.90
2022-09-15T05:47:46.624Z,88.22
2022-09-15T05:50:14.746Z,88.25
2022-09-15T05:52:41.315Z,88.28
2022-09-15T05:55:08.378Z,87.84
2022-09-15T05:57:34.958Z,87.73
2022-09-15T06:00:01.903Z,87.67
2022-09-15T06:02:28.600Z,87.62
2022-09-15T06:04:55.371Z,87.74
2022-09-15T06:07:21.933Z,87.46
2022-09-15T06:09:48.750Z,88.17
2022-09-15T06:12:17.769Z,87.54
2022-09-15T06:14:45.904Z,87.74
2022-09-15T06:17:12.603Z,88.10
2022-09-15T06:19:39.170Z,88.03
2022-09-15T06:22:05.915Z,87.42
2022-09-15T06:24:32.491Z,86.88
2022-09-15T06:26:59.084Z,86.44
2022-09-15T06:29:25.654Z,87.25
2022-09-15T06:31:52.343Z,87.02
2022-09-15T06:34:18.944Z,86.73
2022-09-15T06:36:45.614Z,85.90
2022-09-15T06:39:12.243Z,86.69
2022-09-15T06:42:00.845Z,86.64
2022-09-15T06:44:25.433Z,86.70
2022-09-15T06:46:52.021Z,86.33
2022-09-15T06:49:19.181Z,86.68
2022-09-15T06:51:45.785Z,86.63
2022-09-15T06:54:12.725Z,86.78
2022-09-15T06:56:39.313Z,86.77
2022-09-15T06:59:05.943Z,87.53
2022-09-15T07:01:32.734Z,87.20
2022-09-15T07:04:00.983Z,87.33
2022-09-15T07:06:28.626Z,87.16
2022-09-15T07:08:55.197Z,87.59
2022-09-15T07:11:21.805Z,87.36
2022-09-15T07:13:49.190Z,87.26
2022-09-15T07:16:16.099Z,87.80
2022-09-15T07:18:43.694Z,87.93
2022-09-15T07:21:15.263Z,87.77
2022-09-15T07:23:42.011Z,88.04
2022-09-15T07:26:17.161Z,88.55
2022-09-15T07:28:45.206Z,87.94
2022-09-15T07:31:13.428Z,87.64
2022-09-15T07:33:47.098Z,87.47
2022-09-15T07:36:13.861Z,87.15
2022-09-15T07:38:42.428Z,86.91
2022-09-15T07:41:13.948Z,87.28
2022-09-15T07:43:40.757Z,87.69
2022-09-15T07:46:08.430Z,87.55
2022-09-15T07:48:35.108Z,87.50
2022-09-15T07:51:01.994Z,87.61
2022-09-15T07:53:29.466Z,87.64
2022-09-15T07:55:56.227Z,86.39
2022-09-15T07:58:23.026Z,86.57
2022-09-15T08:00:49.726Z,85.45
2022-09-15T08:03:16.431Z,85.93
2022-09-15T08:05:45.584Z,85.65
2022-09-15T08:08:12.548Z,85.69
2022-09-15T08:10:40.285Z,86.11
2022-09-15T08:13:06.898Z,86.10
2022-09-15T08:15:36.366Z,86.24
2022-09-15T08:18:03.737Z,86.61
2022-09-15T08:20:31.522Z,86.84
2022-09-15T08:22:58.635Z,86.06
2022-09-15T08:25:25.238Z,86.10
2022-09-15T08:27:53.983Z,85.96
2022-09-15T08:30:21.352Z,86.20
2022-09-15T08:32:48.492Z,85.71
2022-09-15T08:35:15.998Z,86.29
2022-09-15T08:37:42.578Z,86.33
2022-09-15T08:40:21.386Z,86.25
2022-09-15T08:42:48.723Z,86.88
2022-09-15T08:45:43.056Z,86.93
2022-09-15T08:48:10.442Z,87.48
2022-09-15T08:50:40.264Z,87.58
2022-09-15T08:53:19.101Z,88.11
2022-09-15T08:55:50.468Z,89.04
2022-09-15T08:58:21.816Z,89.60
2022-09-15T09:00:51.800Z,89.67
2022-09-15T09:03:37.461Z,88.85
2022-09-15T09:06:19.084Z,88.76
2022-09-15T09:09:01.359Z,88.64
2022-09-15T09:11:30.751Z,88.61
2022-09-15T09:14:17.481Z,89.02
2022-09-15T09:16:56.158Z,89.04
2022-09-15T09:19:47.874Z,89.05
2022-09-15T09:22:16.570Z,89.07
2022-09-15T09:24:53.760Z,89.05
2022-09-15T09:27:22.426Z,88.05
2022-09-15T09:29:50.640Z,87.86
2022-09-15T09:32:25.596Z,88.26
2022-09-15T09:35:13.992Z,87.97
2022-09-15T09:37:40.572Z,88.52
2022-09-15T09:40:07.941Z,88.48
2022-09-15T09:42:37.193Z,88.64
2022-09-15T09:45:05.168Z,89.22
2022-09-15T09:47:31.727Z,89.15
2022-09-15T09:49:59.456Z,89.54
2022-09-15T09:52:36.622Z,89.16
2022-09-15T09:55:20.210Z,89.43
2022-09-15T09:57:48.975Z,89.48
2022-09-15T10:00:36.535Z,89.57
2022-09-15T10:03:19.794Z,89.64
2022-09-15T10:06:00.238Z,89.62
2022-09-15T10:08:26.887Z,89.50
2022-09-15T10:10:54.226Z,89.21
2022-09-15T10:13:21.326Z,89.35
2022-09-15T10:15:58.082Z,89.29
2022-09-15T10:18:30.836Z,88.92
2022-09-15T10:20:57.501Z,88.36
2022-09-15T10:23:25.993Z,88.35
2022-09-15T10:26:00.580Z,87.77
2022-09-15T10:28:27.341Z,87.72
2022-09-15T10:31:06.942Z,87.81
2022-09-15T10:33:37.080Z,88.08
2022-09-15T10:36:18.148Z,88.14
2022-09-15T10:38:56.746Z,88.49
2022-09-15T10:41:25.008Z,88.57
2022-09-15T10:44:17.818Z,88.91
2022-09-15T10:47:10.217Z,88.40
2022-09-15T10:49:49.922Z,88.27
2022-09-15T10:52:25.352Z,88.42
2022-09-15T10:54:51.837Z,88.21
2022-09-15T10:57:48.988Z,88.41
2022-09-15T11:00:23.408Z,88.32
2022-09-15T11:03:11.392Z,88.26
2022-09-15T11:06:05.990Z,87.63
2022-09-15T11:08:53.352Z,87.59
2022-09-15T11:11:44.517Z,87.59
2022-09-15T11:14:17.409Z,87.45
2022-09-15T11:17:00.564Z,87.20
2022-09-15T11:19:53.335Z,87.49
2022-09-15T11:22:41.212Z,87.62
2022-09-15T11:25:22.520Z,87.64
2022-09-15T11:27:54.050Z,87.79
2022-09-15T11:30:22.435Z,87.60
2022-09-15T11:33:15.375Z,87.42
2022-09-15T11:35:48.072Z,87.58
2022-09-15T11:38:53.059Z,87.96
2022-09-15T11:41:22.695Z,87.77
2022-09-15T11:44:06.427Z,87.70
2022-09-15T11:46:43.140Z,87.65
2022-09-15T11:49:17.500Z,87.69
2022-09-15T11:51:50.690Z,87.91
2022-09-15T11:54:31.588Z,88.06
2022-09-15T11:56:58.420Z,88.13
2022-09-15T11:59:46.806Z,88.46
2022-09-15T12:02:25.538Z,88.64
2022-09-15T12:05:15.032Z,89.38
2022-09-15T12:08:05.619Z,89.76
2022-09-15T12:10:36.781Z,89.94
2022-09-15T12:13:03.378Z,90.23
2022-09-15T12:15:29.935Z,90.25
2022-09-15T12:18:37.155Z,90.37
2022-09-15T12:21:23.756Z,90.54
2022-09-15T12:24:16.916Z,91.09
2022-09-15T12:26:46.419Z,90.96
2022-09-15T12:29:22.064Z,91.40
2022-09-15T12:31:48.616Z,91.54
2022-09-15T12:34:38.404Z,91.71
2022-09-15T12:37:14.694Z,91.73
2022-09-15T12:39:43.184Z,91.73
2022-09-15T12:42:21.505Z,91.76
2022-09-15T12:44:50.200Z,91.74
2022-09-15T12:47:18.020Z,91.76
2022-09-15T12:49:46.196Z,91.75
2022-09-15T12:52:12.799Z,91.39
2022-09-15T12:54:41.294Z,91.42
2022-09-15T12:57:08.126Z,91.85
2022-09-15T12:59:34.778Z,91.96
2022-09-15T13:02:02.604Z,91.57
2022-09-15T13:04:55.717Z,92.02
2022-09-15T13:07:22.921Z,92.45
2022-09-15T13:10:08.255Z,92.47
2022-09-15T13:12:36.602Z,92.19
2022-09-15T13:15:04.405Z,92.18
2022-09-15T13:17:34.181Z,91.99
2022-09-15T13:20:02.245Z,91.88
2022-09-15T13:22:31.366Z,91.56
2022-09-15T13:25:01.828Z,91.66
2022-09-15T13:27:36.423Z,91.37
2022-09-15T13:30:26.082Z,90.71
2022-09-15T13:39:21.271Z,90.12
2022-09-15T13:42:07.064Z,90.92
2022-09-15T13:45:04.487Z,91.38
2022-09-15T13:47:41.443Z,89.52
2022-09-15T13:50:32.457Z,90.17
2022-09-15T13:53:30.682Z,90.89
2022-09-15T13:56:08.978Z,85.75
2022-09-15T14:01:22.604Z,84.27
2022-09-15T14:03:57.888Z,84.84
2022-09-15T14:06:25.005Z,86.63
2022-09-15T14:08:54.088Z,85.83
2022-09-15T14:11:26.885Z,86.57
2022-09-15T14:13:53.570Z,85.99
2022-09-15T14:16:36.121Z,86.28
2022-09-15T14:19:34.555Z,85.58
2022-09-15T14:22:02.550Z,85.48
2022-09-15T14:24:30.644Z,85.65
2022-09-15T14:27:03.502Z,86.32
2022-09-15T14:29:30.981Z,86.22
2022-09-15T14:32:00.326Z,86.19
2022-09-15T14:34:27.470Z,86.08
2022-09-15T14:37:03.402Z,86.39
2022-09-15T14:39:30.110Z,86.28
2022-09-15T14:41:56.762Z,86.76
2022-09-15T14:47:26.418Z,86.73
2022-09-15T14:50:29.028Z,86.84
2022-09-15T14:53:07.410Z,85.81
2022-09-15T14:55:38.054Z,85.50
2022-09-15T14:58:16.511Z,84.82
2022-09-15T15:01:01.596Z,86.21
2022-09-15T15:03:58.506Z,87.70
2022-09-15T15:06:52.234Z,87.73
2022-09-15T15:09:32.458Z,87.33
2022-09-15T15:12:24.606Z,87.59
2022-09-15T15:14:52.788Z,87.71
2022-09-15T15:17:38.534Z,87.73
2022-09-15T15:20:08.062Z,87.63
2022-09-15T15:22:34.840Z,88.05
2022-09-15T15:25:01.424Z,87.55
2022-09-15T15:27:34.202Z,88.16
2022-09-15T15:30:23.915Z,88.40
2022-09-15T15:32:50.983Z,88.34
2022-09-15T15:35:17.912Z,88.25
2022-09-15T15:37:44.494Z,88.15
2022-09-15T15:40:17.335Z,87.97
2022-09-15T15:42:57.751Z,88.41
2022-09-15T15:45:27.930Z,87.46
2022-09-15T15:47:54.777Z,86.56
2022-09-15T15:50:26.218Z,85.50
2022-09-15T15:52:52.929Z,85.24
2022-09-15T15:55:24.123Z,85.84
2022-09-15T15:57:52.485Z,85.44
2022-09-15T16:00:30.528Z,86.00
2022-09-15T16:02:57.327Z,86.00
2022-09-15T16:05:27.517Z,85.91
2022-09-15T16:07:54.247Z,85.83
2022-09-15T16:10:23.427Z,86.41
2022-09-15T16:12:50.514Z,86.56
2022-09-15T16:15:18.897Z,86.94
2022-09-15T16:17:46.873Z,86.95
2022-09-15T16:20:15.921Z,87.07
2022-09-15T16:22:43.385Z,87.45
2022-09-15T16:25:18.405Z,87.47
2022-09-15T16:27:45.012Z,87.91
2022-09-15T16:30:14.336Z,87.69
2022-09-15T16:32:41.350Z,88.13
2022-09-15T16:35:49.637Z,88.33
2022-09-15T16:38:16.219Z,88.04
2022-09-15T16:40:42.882Z,88.16
2022-09-15T16:43:10.516Z,88.38
2022-09-15T16:45:40.589Z,88.39
2022-09-15T16:48:08.174Z,88.48
2022-09-15T16:50:35.143Z,88.63
2022-09-15T16:53:01.761Z,88.67
2022-09-15T16:55:47.183Z,89.11
2022-09-15T16:58:14.272Z,89.01
2022-09-15T17:00:42.568Z,88.61
2022-09-15T17:03:09.219Z,89.17
2022-09-15T17:05:36.966Z,88.85
2022-09-15T17:08:04.668Z,88.79
2022-09-15T17:10:31.567Z,88.95
2022-09-15T17:12:58.262Z,88.94
2022-09-15T17:15:28.565Z,88.87
2022-09-15T17:17:56.155Z,89.59
2022-09-15T17:20:23.465Z,89.19
2022-09-15T17:22:50.120Z,89.49
2022-09-15T17:25:39.985Z,89.74
2022-09-15T17:28:06.550Z,89.32
2022-09-15T17:30:33.146Z,89.51
2022-09-15T17:33:02.751Z,89.84
2022-09-15T17:35:32.164Z,89.56
2022-09-15T17:37:58.732Z,90.08
2022-09-15T17:40:25.433Z,90.03
2022-09-15T17:42:52.018Z,90.25
2022-09-15T17:45:23.839Z,90.29
2022-09-15T17:47:50.711Z,90.27
2022-09-15T17:50:18.267Z,90.66
2022-09-15T17:52:45.300Z,90.86
2022-09-15T17:55:31.573Z,90.70
2022-09-15T17:57:59.897Z,91.20
2022-09-15T18:00:28.391Z,91.21
2022-09-15T18:02:56.415Z,91.68
2022-09-15T18:05:34.120Z,91.79
2022-09-15T18:08:03.779Z,91.84
2022-09-15T18:10:34.443Z,92.08
2022-09-15T18:13:02.806Z,91.71
2022-09-15T18:15:30.853Z,91.38
2022-09-15T18:18:02.832Z,89.96
2022-09-15T18:20:30.856Z,90.02
2022-09-15T18:22:57.520Z,89.54
2022-09-15T18:25:32.448Z,90.20
2022-09-15T18:28:00.842Z,90.25
2022-09-15T18:30:29.550Z,89.59
2022-09-15T18:32:56.221Z,88.78
2022-09-15T18:35:22.861Z,88.63
2022-09-15T18:37:50.609Z,88.68
2022-09-15T18:40:17.993Z,89.02
2022-09-15T18:42:44.715Z,89.21
2022-09-15T18:45:13.988Z,89.01
2022-09-15T18:47:42.530Z,89.04
2022-09-15T18:50:10.220Z,88.83
2022-09-15T18:52:40.438Z,88.62
2022-09-15T18:55:08.543Z,89.07
2022-09-15T18:57:45.480Z,89.09
2022-09-15T19:00:17.286Z,88.86
2022-09-15T19:02:44.102Z,88.75
2022-09-15T19:05:15.652Z,88.87
2022-09-15T19:07:43.110Z,89.20
2022-09-15T19:10:11.022Z,89.27
2022-09-15T19:12:37.981Z,89.48
2022-09-15T19:15:10.609Z,89.12
2022-09-15T19:17:38.289Z,89.55
2022-09-15T19:20:06.720Z,89.74
2022-09-15T19:22:33.603Z,89.57
2022-09-15T19:25:00.331Z,89.24
2022-09-15T19:27:26.902Z,89.37
2022-09-15T19:29:53.484Z,88.95
2022-09-15T19:32:20.985Z,89.08
2022-09-15T19:34:47.725Z,89.47
2022-09-15T19:37:18.653Z,89.11
2022-09-15T19:39:45.746Z,89.22
2022-09-15T19:42:12.737Z,89.78
2022-09-15T19:44:40.480Z,90.03
2022-09-15T19:47:07.055Z,89.83
2022-09-15T19:49:33.772Z,89.86
2022-09-15T19:52:00.344Z,90.27
2022-09-15T19:54:27.895Z,90.62
2022-09-15T19:56:54.552Z,90.67
2022-09-15T19:59:21.133Z,90.69
2022-09-15T20:01:47.845Z,90.82
2022-09-15T20:06:58.991Z,90.75
2022-09-15T20:09:26.291Z,91.00
2022-09-15T20:11:53.073Z,90.80
2022-09-15T20:14:19.795Z,90.58
2022-09-15T20:16:46.508Z,90.37
2022-09-15T20:19:13.259Z,90.45
2022-09-15T20:21:55.576Z,90.33
2022-09-15T20:24:22.343Z,90.12
2022-09-15T20:26:48.951Z,89.93
2022-09-15T20:29:15.679Z,90.04
2022-09-15T20:31:42.623Z,90.07
2022-09-15T20:34:09.276Z,89.98
2022-09-15T20:36:36.849Z,89.83
2022-09-15T20:39:04.609Z,89.94
2022-09-15T20:41:33.964Z,89.93
2022-09-15T20:44:00.569Z,89.93
2022-09-15T20:46:29.260Z,89.99
2022-09-15T20:48:55.990Z,89.79
2022-09-15T20:51:27.887Z,89.70
2022-09-15T20:53:55.794Z,89.24
2022-09-15T20:56:25.427Z,88.74
2022-09-15T20:58:56.790Z,88.91
2022-09-15T21:01:24.923Z,88.87
2022-09-15T21:03:51.839Z,88.90
2022-09-15T21:06:20.335Z,89.08
2022-09-15T21:08:47.881Z,88.50
2022-09-15T21:11:14.847Z,88.45
2022-09-15T21:13:42.180Z,88.44
2022-09-15T21:16:10.230Z,88.45
2022-09-15T21:18:39.237Z,87.86
2022-09-15T21:21:07.370Z,88.28
2022-09-15T21:23:41.666Z,88.09
2022-09-15T21:26:12.726Z,88.26
2022-09-15T21:28:39.407Z,88.20
2022-09-15T21:31:08.285Z,88.22
2022-09-15T21:33:42.298Z,88.76
2022-09-15T21:36:11.153Z,88.49
2022-09-15T21:38:39.350Z,88.56
2022-09-15T21:41:06.778Z,88.59
2022-09-15T21:43:37.664Z,88.59
2022-09-15T21:46:08.660Z,88.91
2022-09-15T21:48:35.528Z,88.66
2022-09-15T21:51:02.568Z,88.62
2022-09-15T21:53:29.405Z,88.67
2022-09-15T21:55:56.645Z,88.69
2022-09-15T21:58:25.946Z,88.12
2022-09-15T22:00:52.994Z,88.11
2022-09-15T22:03:19.764Z,87.81
2022-09-15T22:05:47.079Z,87.46
2022-09-15T22:08:14.641Z,87.39
2022-09-15T22:10:41.378Z,86.07
2022-09-15T22:13:09.763Z,85.88
2022-09-15T22:15:36.665Z,85.95
2022-09-15T22:18:03.631Z,86.06
2022-09-15T22:20:30.220Z,86.77
2022-09-15T22:22:56.845Z,86.88
2022-09-15T22:25:23.509Z,86.07
2022-09-15T22:27:50.255Z,86.07
2022-09-15T22:30:17.177Z,86.42
2022-09-15T22:32:43.776Z,87.04
2022-09-15T22:35:10.674Z,87.23
2022-09-15T22:37:37.322Z,86.98
2022-09-15T22:40:04.106Z,87.40
2022-09-15T22:42:30.768Z,87.60
2022-09-15T22:44:57.431Z,87.47
2022-09-15T22:47:24.130Z,87.20
2022-09-15T22:49:50.720Z,86.94
2022-09-15T22:52:17.340Z,87.11
2022-09-15T22:54:43.897Z,87.49
2022-09-15T22:57:10.465Z,87.61
2022-09-15T22:59:37.128Z,87.60
2022-09-15T23:02:03.797Z,87.95
2022-09-15T23:04:30.497Z,88.11
2022-09-15T23:06:57.133Z,88.34
2022-09-15T23:09:23.751Z,88.01
2022-09-15T23:11:50.380Z,88.20
2022-09-15T23:14:18.067Z,88.30
2022-09-15T23:16:44.705Z,88.33
2022-09-15T23:19:14.487Z,88.57
2022-09-15T23:21:41.101Z,88.49
2022-09-15T23:24:08.761Z,88.15
2022-09-15T23:26:35.438Z,88.06
2022-09-15T23:29:02.032Z,88.05
2022-09-15T23:31:28.701Z,88.57
2022-09-15T23:33:55.337Z,88.00
2022-09-15T23:36:22.040Z,87.96
2022-09-15T23:38:48.714Z,87.86
2022-09-15T23:41:15.857Z,88.01
2022-09-15T23:43:42.491Z,88.01
2022-09-15T23:46:09.234Z,88.08
2022-09-15T23:48:36.197Z,88.00
2022-09-15T23:51:02.961Z,87.85
2022-09-15T23:53:29.785Z,88.21
2022-09-15T23:55:56.465Z,88.21
2022-09-15T23:58:23.229Z,88.41
